Time;durP1;ratioP1;P1;durP2;ratioP2;P2;SDS_P1;SDS_P2;PMS_P1;PMS_P2;Temp;Humidity;BMP_temperature;BMP_pressure;BME280_temperature;BME280_humidity;BME280_pressure;Samples;Min_cycle;Max_cycle;Signal;HPM_P1;HPM_P2
2022/02/27 00:00:21;;;;;;;13.57;4.63;;;;;;;-1.57;100.00;97572.31;5087485;28;20036;-75
2022/02/27 00:02:46;;;;;;;10.87;5.90;;;;;;;-1.61;100.00;97573.31;5079787;28;20039;-75
2022/02/27 00:05:12;;;;;;;14.57;5.03;;;;;;;-1.59;100.00;97575.81;5078289;28;20071;-74
2022/02/27 00:07:38;;;;;;;11.50;4.10;;;;;;;-1.55;100.00;97575.66;5078938;28;20089;-75
2022/02/27 00:10:05;;;;;;;19.27;4.60;;;;;;;-1.60;100.00;97580.16;5069123;28;20024;-74
2022/02/27 00:12:31;;;;;;;13.20;4.80;;;;;;;-1.61;100.00;97585.34;5084056;28;20100;-74
2022/02/27 00:14:57;;;;;;;23.03;4.70;;;;;;;-1.62;100.00;97581.09;5076128;28;20463;-75
2022/02/27 00:17:22;;;;;;;15.13;4.43;;;;;;;-1.65;100.00;97576.88;5085702;28;20066;-75
2022/02/27 00:19:48;;;;;;;16.23;5.23;;;;;;;-1.63;100.00;97569.94;5090693;28;20490;-74
2022/02/27 00:22:15;;;;;;;18.67;4.23;;;;;;;-1.68;100.00;97574.38;5076037;28;20040;-74
2022/02/27 00:24:40;;;;;;;11.30;4.10;;;;;;;-1.73;100.00;97574.56;5056096;28;20457;-74
2022/02/27 00:27:06;;;;;;;16.10;4.93;;;;;;;-1.72;100.00;97575.38;5089486;28;20481;-74
2022/02/27 00:29:31;;;;;;;13.43;5.07;;;;;;;-1.79;100.00;97572.16;5090788;28;20032;-75
2022/02/27 00:32:00;;;;;;;11.50;4.67;;;;;;;-1.80;100.00;97573.06;5087485;28;20043;-74
2022/02/27 00:34:26;;;;;;;13.23;4.23;;;;;;;-1.88;100.00;97580.19;5078507;28;20557;-74
2022/02/27 00:36:52;;;;;;;15.43;5.50;;;;;;;-1.91;100.00;97567.44;5073802;28;20032;-74
2022/02/27 00:39:18;;;;;;;16.77;4.37;;;;;;;-1.91;100.00;97580.31;5080406;28;20031;-75
2022/02/27 00:41:44;;;;;;;13.90;4.73;;;;;;;-1.95;100.00;97573.56;5088564;28;20024;-74
2022/02/27 00:44:10;;;;;;;12.70;4.93;;;;;;;-1.93;100.00;97572.63;5059667;28;20466;-75
2022/02/27 00:46:35;;;;;;;19.30;4.90;;;;;;;-1.92;100.00;97574.31;5071476;28;20446;-74
2022/02/27 00:49:02;;;;;;;12.77;4.20;;;;;;;-1.90;100.00;97582.00;5090577;28;20385;-74
2022/02/27 00:51:29;;;;;;;16.27;4.57;;;;;;;-1.93;100.00;97569.22;5073489;28;20462;-74
2022/02/27 00:53:55;;;;;;;9.43;4.27;;;;;;;-1.93;100.00;97575.19;5090441;28;20449;-74
2022/02/27 00:56:21;;;;;;;15.67;4.90;;;;;;;-1.94;100.00;97570.09;5090223;28;20059;-75
2022/02/27 00:58:50;;;;;;;13.23;4.33;;;;;;;-1.91;100.00;97557.97;5073149;28;20028;-75
2022/02/27 01:01:20;;;;;;;14.13;4.83;;;;;;;-1.96;100.00;97562.41;5073324;28;20028;-75
2022/02/27 01:03:46;;;;;;;15.27;4.73;;;;;;;-1.97;100.00;97567.63;5089753;28;20521;-74
2022/02/27 01:06:12;;;;;;;11.97;4.57;;;;;;;-1.99;100.00;97564.25;5081863;28;20566;-75
2022/02/27 01:08:37;;;;;;;10.37;3.97;;;;;;;-2.00;100.00;97565.16;5068357;28;20509;-75
2022/02/27 01:11:03;;;;;;;11.93;5.00;;;;;;;-2.03;100.00;97550.63;5058141;28;20463;-75
2022/02/27 01:13:29;;;;;;;15.23;4.60;;;;;;;-2.10;100.00;97546.56;5061381;28;20027;-75
2022/02/27 01:15:55;;;;;;;9.40;3.70;;;;;;;-2.07;100.00;97555.94;5086976;28;20546;-75
2022/02/27 01:18:20;;;;;;;16.80;5.10;;;;;;;-2.12;100.00;97556.06;5081487;28;20458;-75
2022/02/27 01:20:46;;;;;;;13.97;4.53;;;;;;;-2.21;100.00;97546.91;5081504;28;20397;-75
2022/02/27 01:23:12;;;;;;;14.07;4.30;;;;;;;-2.22;100.00;97544.34;5058511;28;20039;-75
2022/02/27 01:25:38;;;;;;;13.57;4.33;;;;;;;-2.20;100.00;97538.28;5083186;28;20813;-74
2022/02/27 01:28:03;;;;;;;12.83;4.27;;;;;;;-2.16;100.00;97539.00;5083844;28;20054;-75
2022/02/27 01:30:29;;;;;;;12.77;4.57;;;;;;;-2.25;100.00;97545.28;5078897;28;20542;-74
2022/02/27 01:32:55;;;;;;;14.10;5.70;;;;;;;-2.10;100.00;97543.13;5088333;28;20062;-75
2022/02/27 01:35:23;;;;;;;12.37;3.90;;;;;;;-2.23;100.00;97543.53;5064887;28;20032;-74
2022/02/27 01:37:48;;;;;;;15.13;4.97;;;;;;;-2.18;100.00;97539.06;5056012;28;20476;-75
2022/02/27 01:40:16;;;;;;;17.50;4.60;;;;;;;-2.21;100.00;97541.75;5081075;28;20032;-74
2022/02/27 01:42:42;;;;;;;10.07;4.37;;;;;;;-2.19;100.00;97539.94;5070902;28;20454;-75
2022/02/27 01:45:08;;;;;;;13.13;4.50;;;;;;;-2.21;100.00;97535.75;5083243;28;20036;-75
2022/02/27 01:47:34;;;;;;;14.83;5.47;;;;;;;-2.20;100.00;97537.44;5077268;28;20406;-75
2022/02/27 01:50:00;;;;;;;10.63;5.23;;;;;;;-2.18;100.00;97535.63;5077234;28;20462;-75
2022/02/27 01:52:25;;;;;;;14.17;4.73;;;;;;;-2.16;100.00;97528.72;5069368;28;20406;-75
2022/02/27 01:54:51;;;;;;;15.00;4.60;;;;;;;-2.19;100.00;97528.81;5070306;28;20402;-74
2022/02/27 01:57:18;;;;;;;15.03;5.80;;;;;;;-2.19;100.00;97523.66;5084292;28;20699;-74
2022/02/27 01:59:43;;;;;;;16.77;6.00;;;;;;;-2.17;100.00;97521.88;5085810;28;20040;-74
2022/02/27 02:02:09;;;;;;;14.10;4.90;;;;;;;-2.20;100.00;97520.22;5073253;28;20470;-74
2022/02/27 02:04:35;;;;;;;16.17;5.20;;;;;;;-2.22;100.00;97524.59;5085617;28;20153;-74
2022/02/27 02:07:01;;;;;;;14.20;4.50;;;;;;;-2.21;100.00;97525.44;5089263;28;20040;-74
2022/02/27 02:09:29;;;;;;;15.53;5.17;;;;;;;-2.26;100.00;97515.28;5063825;28;20482;-74
2022/02/27 02:11:56;;;;;;;14.93;5.10;;;;;;;-2.25;100.00;97516.09;5064667;28;20661;-75
2022/02/27 02:14:23;;;;;;;18.03;5.50;;;;;;;-2.25;100.00;97513.53;5072699;28;20478;-74
2022/02/27 02:16:53;;;;;;;13.80;5.50;;;;;;;-2.17;100.00;97511.56;5064184;28;20482;-74
2022/02/27 02:19:21;;;;;;;14.70;4.87;;;;;;;-2.19;100.00;97514.19;5063834;28;20473;-75
2022/02/27 02:21:57;;;;;;;14.47;6.27;;;;;;;-2.11;100.00;97503.66;5077322;28;20462;-74
2022/02/27 02:24:26;;;;;;;18.97;5.70;;;;;;;-2.05;100.00;97510.31;5080405;28;20472;-75
2022/02/27 02:26:52;;;;;;;15.57;5.73;;;;;;;-2.07;100.00;97501.81;5068856;28;20445;-74
2022/02/27 02:29:22;;;;;;;14.57;5.20;;;;;;;-2.07;100.00;97501.81;5059641;28;20508;-74
2022/02/27 02:31:49;;;;;;;17.30;5.60;;;;;;;-2.08;100.00;97505.25;5078423;28;20512;-76
2022/02/27 02:34:19;;;;;;;13.00;5.10;;;;;;;-2.14;100.00;97506.31;5087981;28;20485;-74
2022/02/27 02:36:46;;;;;;;12.27;5.73;;;;;;;-2.11;100.00;97502.78;5055257;28;20470;-75
2022/02/27 02:39:14;;;;;;;15.70;6.17;;;;;;;-2.10;100.00;97502.75;5071604;28;20449;-74
2022/02/27 02:41:41;;;;;;;17.53;5.23;;;;;;;-2.11;100.00;97513.94;5079515;28;20454;-74
2022/02/27 02:44:12;;;;;;;23.57;5.70;;;;;;;-2.18;100.00;97510.72;5088377;28;20553;-74
2022/02/27 02:46:39;;;;;;;13.83;6.10;;;;;;;-2.18;100.00;97503.00;5076371;28;20451;-75
2022/02/27 02:49:07;;;;;;;17.63;5.77;;;;;;;-2.17;100.00;97503.84;5088326;28;20450;-74
2022/02/27 02:51:40;;;;;;;14.52;6.18;;;;;;;-2.17;100.00;97506.41;5088031;28;20520;-74
2022/02/27 02:54:07;;;;;;;12.20;5.73;;;;;;;-2.09;100.00;97499.25;5088090;28;20058;-74
2022/02/27 02:56:33;;;;;;;15.97;6.33;;;;;;;-2.13;100.00;97498.53;5080074;28;20435;-75
2022/02/27 02:58:59;;;;;;;16.60;5.70;;;;;;;-2.07;100.00;97499.22;5071480;28;20826;-75
2022/02/27 03:01:25;;;;;;;16.83;6.00;;;;;;;-2.11;100.00;97506.22;5071578;28;20059;-74
2022/02/27 03:03:53;;;;;;;19.10;6.63;;;;;;;-2.12;100.00;97494.19;5088068;28;20511;-74
2022/02/27 03:06:19;;;;;;;16.90;5.47;;;;;;;-2.16;100.00;97500.34;5082213;28;20789;-74
2022/02/27 03:08:48;;;;;;;13.47;6.23;;;;;;;-2.20;100.00;97491.06;5088568;28;20454;-75
2022/02/27 03:11:15;;;;;;;19.90;5.60;;;;;;;-2.29;100.00;97496.50;5088392;28;20438;-74
2022/02/27 03:13:41;;;;;;;13.47;6.43;;;;;;;-2.27;100.00;97487.84;5087542;28;20473;-75
2022/02/27 03:16:07;;;;;;;11.20;5.20;;;;;;;-2.26;100.00;97489.50;5062314;28;20494;-75
2022/02/27 03:18:33;;;;;;;14.70;7.00;;;;;;;-2.26;100.00;97484.34;5073553;28;20039;-74
2022/02/27 03:21:00;;;;;;;22.13;6.80;;;;;;;-2.26;100.00;97481.78;5089004;28;20118;-75
2022/02/27 03:23:27;;;;;;;20.73;6.37;;;;;;;-2.25;100.00;97480.88;5081102;28;20426;-74
2022/02/27 03:25:53;;;;;;;13.87;6.13;;;;;;;-2.30;100.00;97484.50;5077308;28;20429;-74
2022/02/27 03:28:19;;;;;;;14.40;5.90;;;;;;;-2.27;100.00;97484.41;5074506;28;20462;-74
2022/02/27 03:30:45;;;;;;;19.37;7.00;;;;;;;-2.26;100.00;97479.19;5088923;28;20036;-75
2022/02/27 03:33:10;;;;;;;20.27;6.83;;;;;;;-2.28;100.00;97482.72;5078150;28;20040;-74
2022/02/27 03:35:36;;;;;;;13.07;5.63;;;;;;;-2.31;100.00;97485.38;5069600;28;20396;-74
2022/02/27 03:38:03;;;;;;;14.87;6.77;;;;;;;-2.30;100.00;97477.63;5065643;28;20386;-74
2022/02/27 03:40:29;;;;;;;21.17;7.80;;;;;;;-2.31;100.00;97480.22;5079828;28;20519;-73
2022/02/27 03:42:57;;;;;;;23.30;8.17;;;;;;;-2.25;100.00;97482.63;5089240;28;20913;-74
2022/02/27 03:45:23;;;;;;;17.80;8.03;;;;;;;-2.23;100.00;97480.84;5087736;28;21104;-75
2022/02/27 03:47:49;;;;;;;17.03;6.13;;;;;;;-2.22;100.00;97485.09;5067549;28;20466;-72
2022/02/27 03:50:17;;;;;;;15.23;6.93;;;;;;;-2.25;100.00;97486.03;5067499;28;20080;-73
2022/02/27 03:52:43;;;;;;;17.17;6.83;;;;;;;-2.25;100.00;97482.63;5081553;28;20500;-74
2022/02/27 03:55:12;;;;;;;13.03;6.27;;;;;;;-2.27;100.00;97484.41;5091615;28;20527;-75
2022/02/27 03:57:38;;;;;;;17.73;6.70;;;;;;;-2.32;100.00;97484.53;5074554;28;21183;-75
2022/02/27 04:00:06;;;;;;;16.87;7.30;;;;;;;-2.25;100.00;97486.03;5056306;28;20466;-74
2022/02/27 04:02:39;;;;;;;18.20;7.97;;;;;;;-2.30;100.00;97487.09;5074237;28;20028;-74
2022/02/27 04:05:06;;;;;;;19.63;6.97;;;;;;;-2.31;100.00;97483.69;5065081;28;20466;-74
2022/02/27 04:07:31;;;;;;;13.50;7.43;;;;;;;-2.24;100.00;97482.56;5088263;28;20918;-74
2022/02/27 04:09:57;;;;;;;15.20;7.43;;;;;;;-2.27;100.00;97482.69;5088555;28;20459;-74
2022/02/27 04:12:22;;;;;;;14.70;6.87;;;;;;;-2.31;100.00;97482.81;5087459;28;20055;-74
2022/02/27 04:14:48;;;;;;;17.13;6.80;;;;;;;-2.36;100.00;97490.69;5070745;28;20037;-75
2022/02/27 04:17:14;;;;;;;16.87;6.97;;;;;;;-2.34;100.00;97495.81;5065886;28;20027;-75
2022/02/27 04:19:39;;;;;;;19.03;6.57;;;;;;;-2.34;100.00;97499.22;5090569;28;20028;-75
2022/02/27 04:22:05;;;;;;;14.77;6.87;;;;;;;-2.40;100.00;97495.09;5059721;28;20043;-75
2022/02/27 04:24:31;;;;;;;17.20;6.87;;;;;;;-2.43;100.00;97499.50;5091178;28;20028;-75
2022/02/27 04:26:58;;;;;;;13.63;5.67;;;;;;;-2.44;100.00;97503.84;5091130;28;20046;-75
2022/02/27 04:29:24;;;;;;;13.37;6.67;;;;;;;-2.40;100.00;97499.41;5090591;28;20439;-75
2022/02/27 04:31:50;;;;;;;16.37;7.13;;;;;;;-2.44;100.00;97503.00;5070835;28;20450;-75
2022/02/27 04:34:15;;;;;;;15.47;7.17;;;;;;;-2.40;100.00;97509.72;5085586;28;20552;-74
2022/02/27 04:36:41;;;;;;;17.97;7.57;;;;;;;-2.48;100.00;97503.97;5080923;28;20027;-75
2022/02/27 04:39:07;;;;;;;16.10;7.13;;;;;;;-2.46;100.00;97494.47;5085454;28;20046;-75
2022/02/27 04:41:32;;;;;;;15.07;6.87;;;;;;;-2.50;100.00;97500.59;5092704;28;20058;-74
2022/02/27 04:43:58;;;;;;;20.10;7.87;;;;;;;-2.49;100.00;97499.69;5091818;28;20059;-75
2022/02/27 04:46:24;;;;;;;23.10;8.80;;;;;;;-2.54;100.00;97505.00;5091777;28;20020;-75
2022/02/27 04:48:49;;;;;;;16.20;7.20;;;;;;;-2.52;100.00;97495.47;5092172;28;20039;-75
2022/02/27 04:51:15;;;;;;;18.90;7.13;;;;;;;-2.54;100.00;97504.16;5099050;28;20021;-74
2022/02/27 04:53:41;;;;;;;18.10;8.17;;;;;;;-2.50;100.00;97503.19;5094282;28;20581;-74
2022/02/27 04:56:08;;;;;;;19.23;8.20;;;;;;;-2.53;100.00;97506.69;5086763;28;20047;-75
2022/02/27 04:58:33;;;;;;;14.47;7.50;;;;;;;-2.49;100.00;97504.84;5081424;28;20492;-74
2022/02/27 05:00:59;;;;;;;22.03;7.73;;;;;;;-2.50;100.00;97505.75;5090423;28;20454;-74
2022/02/27 05:03:25;;;;;;;21.37;8.70;;;;;;;-2.46;100.00;97504.75;5087253;28;20135;-74
2022/02/27 05:05:50;;;;;;;13.97;7.70;;;;;;;-2.50;100.00;97501.44;5098729;28;20020;-74
2022/02/27 05:08:16;;;;;;;23.40;10.00;;;;;;;-2.52;100.00;97507.53;5083149;28;20031;-74
2022/02/27 05:10:42;;;;;;;19.93;7.80;;;;;;;-2.50;100.00;97506.59;5084320;28;20119;-74
2022/02/27 05:13:07;;;;;;;23.23;8.23;;;;;;;-2.61;100.00;97504.34;5073670;28;20028;-74
2022/02/27 05:15:35;;;;;;;21.07;8.77;;;;;;;-2.55;100.00;97505.88;5073209;28;20403;-74
2022/02/27 05:18:01;;;;;;;15.60;7.70;;;;;;;-2.55;100.00;97505.03;5072910;28;20055;-75
2022/02/27 05:20:27;;;;;;;18.80;8.33;;;;;;;-2.58;100.00;97515.44;5081685;28;21005;-75
2022/02/27 05:22:53;;;;;;;18.17;8.20;;;;;;;-2.55;100.00;97513.59;5090541;28;20028;-73
2022/02/27 05:25:21;;;;;;;19.93;7.83;;;;;;;-2.61;100.00;97517.22;5082988;28;20035;-75
2022/02/27 05:27:48;;;;;;;22.03;8.27;;;;;;;-2.62;100.00;97520.72;5082273;28;20546;-74
2022/02/27 05:30:14;;;;;;;19.23;8.43;;;;;;;-2.61;100.00;97521.53;5089698;28;20464;-75
2022/02/27 05:32:39;;;;;;;19.10;8.13;;;;;;;-2.54;100.00;97519.63;5056412;28;20454;-75
2022/02/27 05:35:06;;;;;;;16.33;8.50;;;;;;;-2.54;100.00;97527.34;5064852;28;20085;-74
2022/02/27 05:37:32;;;;;;;27.40;9.20;;;;;;;-2.53;100.00;97534.19;5082707;28;20022;-74
2022/02/27 05:39:58;;;;;;;21.60;9.17;;;;;;;-2.57;100.00;97537.75;5072395;28;20458;-75
2022/02/27 05:42:24;;;;;;;15.07;7.60;;;;;;;-2.51;100.00;97542.72;5072623;28;20488;-75
2022/02/27 05:44:50;;;;;;;21.40;8.70;;;;;;;-2.58;100.00;97546.34;5082561;28;20077;-74
2022/02/27 05:47:16;;;;;;;19.83;9.17;;;;;;;-2.54;100.00;97542.81;5065389;28;20123;-74
2022/02/27 05:49:42;;;;;;;24.40;9.50;;;;;;;-2.58;100.00;97544.63;5079156;28;20449;-74
2022/02/27 05:52:07;;;;;;;19.73;9.60;;;;;;;-2.60;100.00;97551.56;5070662;28;20450;-74
2022/02/27 05:54:33;;;;;;;29.90;12.17;;;;;;;-2.59;100.00;97545.50;5081085;28;20476;-74
2022/02/27 05:56:59;;;;;;;20.53;10.07;;;;;;;-2.58;100.00;97546.34;5100727;28;20028;-75
2022/02/27 05:59:25;;;;;;;23.37;9.03;;;;;;;-2.54;100.00;97547.97;5075930;28;20122;-74
2022/02/27 06:01:51;;;;;;;15.77;8.53;;;;;;;-2.63;100.00;97557.63;5096051;28;20040;-74
2022/02/27 06:04:18;;;;;;;16.40;8.97;;;;;;;-2.61;100.00;97553.28;5068579;28;20466;-74
2022/02/27 06:06:44;;;;;;;21.23;8.50;;;;;;;-2.48;100.00;97550.31;5085995;28;20447;-74
2022/02/27 06:09:10;;;;;;;20.07;9.77;;;;;;;-2.48;100.00;97556.34;5088897;28;20457;-74
2022/02/27 06:11:36;;;;;;;20.10;9.83;;;;;;;-2.55;100.00;97551.41;5081853;28;20059;-74
2022/02/27 06:14:03;;;;;;;27.30;10.70;;;;;;;-2.53;100.00;97552.22;5062080;28;20883;-74
2022/02/27 06:16:29;;;;;;;19.50;9.53;;;;;;;-2.53;100.00;97555.63;5087941;28;20465;-74
2022/02/27 06:18:55;;;;;;;24.83;8.83;;;;;;;-2.47;100.00;97555.44;5089247;28;20826;-74
2022/02/27 06:21:21;;;;;;;25.13;8.30;;;;;;;-2.31;100.00;97565.25;5088995;28;20493;-74
2022/02/27 06:23:47;;;;;;;20.33;9.87;;;;;;;-2.27;100.00;97556.56;5088968;28;20043;-74
2022/02/27 06:26:13;;;;;;;19.03;8.83;;;;;;;-2.20;100.00;97560.63;5088989;28;20078;-74
2022/02/27 06:28:40;;;;;;;24.93;9.83;;;;;;;-2.07;100.00;97568.81;5086636;28;21054;-73
2022/02/27 06:31:05;;;;;;;23.87;9.23;;;;;;;-2.01;100.00;97563.44;5088671;28;20093;-74
2022/02/27 06:33:32;;;;;;;18.73;9.83;;;;;;;-1.91;100.00;97560.53;5071428;28;20816;-74
2022/02/27 06:35:57;;;;;;;23.03;10.47;;;;;;;-1.90;100.00;97569.09;5077892;28;20036;-74
2022/02/27 06:38:23;;;;;;;22.47;11.13;;;;;;;-1.75;100.00;97576.31;5051366;28;20812;-74
2022/02/27 06:40:49;;;;;;;23.20;9.73;;;;;;;-1.70;100.00;97573.63;5070763;28;20649;-74
2022/02/27 06:43:14;;;;;;;23.53;10.00;;;;;;;-1.68;100.00;97571.81;5071675;28;20035;-74
2022/02/27 06:45:40;;;;;;;23.30;9.13;;;;;;;-1.58;100.00;97578.34;5068007;28;20033;-74
2022/02/27 06:48:06;;;;;;;23.77;10.43;;;;;;;-1.37;100.00;97579.38;5076341;28;20051;-75
2022/02/27 06:50:32;;;;;;;17.40;8.67;;;;;;;-1.30;100.00;97577.41;5085388;28;20118;-74
2022/02/27 06:52:58;;;;;;;19.37;8.70;;;;;;;-1.12;100.00;97576.75;5088463;28;20062;-74
2022/02/27 06:55:24;;;;;;;17.90;9.80;;;;;;;-0.86;100.00;97575.81;5085491;28;20036;-74
2022/02/27 06:57:52;;;;;;;17.77;8.60;;;;;;;-0.82;100.00;97577.38;5051009;28;20462;-74
2022/02/27 07:00:19;;;;;;;18.03;8.43;;;;;;;-0.65;100.00;97581.09;5077309;28;20204;-74
2022/02/27 07:02:45;;;;;;;17.17;8.00;;;;;;;-0.41;100.00;97576.72;5079429;28;20454;-74
2022/02/27 07:05:11;;;;;;;15.73;8.33;;;;;;;-0.27;100.00;97582.22;5089034;28;20505;-74
2022/02/27 07:07:37;;;;;;;15.83;7.70;;;;;;;-0.44;100.00;97576.84;5087803;28;20595;-74
2022/02/27 07:10:04;;;;;;;18.33;8.53;;;;;;;-0.24;100.00;97585.50;5087805;28;20506;-74
2022/02/27 07:12:32;;;;;;;16.33;8.40;;;;;;;0.00;100.00;97582.91;5078599;28;20040;-74
2022/02/27 07:14:57;;;;;;;19.00;7.70;;;;;;;-0.05;100.00;97592.56;5071025;28;20474;-75
2022/02/27 07:17:27;;;;;;;21.20;8.80;;;;;;;0.26;100.00;97591.31;5072393;28;20478;-75
2022/02/27 07:19:53;;;;;;;16.37;8.93;;;;;;;1.52;100.00;97587.59;5060373;28;20071;-75
2022/02/27 07:22:19;;;;;;;18.33;7.93;;;;;;;1.70;100.00;97595.41;5073260;28;20465;-75
2022/02/27 07:24:46;;;;;;;19.63;7.50;;;;;;;1.37;100.00;97598.63;5084673;28;20028;-74
2022/02/27 07:27:12;;;;;;;24.73;8.50;;;;;;;0.89;100.00;97605.06;5075706;28;20990;-75
2022/02/27 07:29:37;;;;;;;17.50;8.00;;;;;;;0.84;100.00;97599.22;5087828;28;20499;-75
2022/02/27 07:32:23;;;;;;;17.77;7.30;;;;;;;0.68;100.00;97605.09;5069087;28;20099;-74
2022/02/27 07:34:49;;;;;;;15.77;8.83;;;;;;;0.57;100.00;97607.28;5088143;28;20040;-75
2022/02/27 07:37:15;;;;;;;14.80;7.80;;;;;;;0.64;100.00;97613.06;5082750;28;20832;-74
2022/02/27 07:39:40;;;;;;;15.53;7.73;;;;;;;1.12;100.00;97620.47;5087569;28;20064;-75
2022/02/27 07:42:06;;;;;;;14.43;7.23;;;;;;;1.64;100.00;97619.88;5081939;28;20036;-75
2022/02/27 07:44:33;;;;;;;18.70;8.90;;;;;;;1.97;100.00;97621.81;5084772;28;20132;-74
2022/02/27 07:47:00;;;;;;;16.63;7.67;;;;;;;2.55;100.00;97608.66;5082359;28;20821;-75
2022/02/27 07:49:26;;;;;;;15.53;8.00;;;;;;;2.16;100.00;97619.22;5058333;28;20465;-75
2022/02/27 07:51:53;;;;;;;18.00;7.47;;;;;;;2.28;100.00;97611.69;5087770;28;20435;-74
2022/02/27 07:54:19;;;;;;;17.83;7.93;;;;;;;2.10;100.00;97621.16;5062841;28;20975;-75
2022/02/27 07:56:45;;;;;;;17.97;7.40;;;;;;;2.59;99.45;97618.78;5086199;28;20426;-74
2022/02/27 07:59:11;;;;;;;14.13;6.97;;;;;;;3.00;99.22;97621.06;5088453;28;20877;-75
2022/02/27 08:01:37;;;;;;;13.83;7.10;;;;;;;3.30;95.07;97615.19;5082573;28;20503;-75
2022/02/27 08:04:03;;;;;;;12.23;6.67;;;;;;;2.94;96.34;97617.94;5080665;28;20435;-75
2022/02/27 08:06:29;;;;;;;12.90;6.63;;;;;;;2.17;97.34;97631.25;5083363;28;20093;-75
2022/02/27 08:08:57;;;;;;;15.03;7.80;;;;;;;2.99;96.61;97618.56;5087245;28;20931;-75
2022/02/27 08:11:22;;;;;;;18.57;6.73;;;;;;;3.51;93.85;97614.06;5066542;28;20024;-75
2022/02/27 08:13:48;;;;;;;15.67;7.50;;;;;;;2.99;97.00;97616.78;5084209;28;20457;-75
2022/02/27 08:16:14;;;;;;;13.10;7.23;;;;;;;2.78;94.09;97613.53;5086718;28;20043;-75
2022/02/27 08:18:39;;;;;;;12.37;6.63;;;;;;;2.96;94.09;97616.94;5078362;28;20028;-75
2022/02/27 08:21:05;;;;;;;11.07;6.10;;;;;;;3.70;89.47;97618.28;5080415;28;20127;-74
2022/02/27 08:23:31;;;;;;;15.13;6.13;;;;;;;3.03;91.50;97617.47;5075687;28;20059;-75
2022/02/27 08:25:59;;;;;;;14.43;5.70;;;;;;;3.43;90.87;97616.25;5087199;28;20032;-74
2022/02/27 08:28:25;;;;;;;14.10;5.67;;;;;;;4.09;84.42;97614.41;5053898;28;20033;-75
2022/02/27 08:30:50;;;;;;;11.57;6.30;;;;;;;4.63;81.60;97617.44;5083365;28;20442;-74
2022/02/27 08:33:16;;;;;;;13.33;5.53;;;;;;;4.69;81.82;97614.47;5074710;28;20456;-75
2022/02/27 08:35:42;;;;;;;16.53;7.10;;;;;;;5.05;78.50;97610.63;5081870;28;20107;-75
2022/02/27 08:38:08;;;;;;;14.70;5.70;;;;;;;4.67;80.04;97613.72;5071175;28;20023;-75
2022/02/27 08:40:34;;;;;;;13.37;7.23;;;;;;;4.86;78.15;97608.25;5090121;28;20032;-74
2022/02/27 08:43:01;;;;;;;13.67;5.60;;;;;;;4.61;82.22;97616.69;5070289;28;20509;-75
2022/02/27 08:45:28;;;;;;;13.97;5.90;;;;;;;5.01;76.42;97609.16;5065680;28;20032;-75
2022/02/27 08:47:54;;;;;;;12.13;6.20;;;;;;;4.60;75.31;97610.63;5088326;28;20036;-74
2022/02/27 08:50:21;;;;;;;12.10;5.47;;;;;;;4.35;77.58;97608.59;5079042;28;20110;-75
2022/02/27 08:52:46;;;;;;;13.83;5.47;;;;;;;4.87;77.41;97613.41;5082819;28;20035;-74
2022/02/27 08:55:16;;;;;;;10.63;5.60;;;;;;;4.21;76.21;97624.16;5089778;28;20062;-74
2022/02/27 08:57:44;;;;;;;9.87;4.67;;;;;;;4.33;77.05;97613.06;5079151;28;20055;-74
2022/02/27 09:00:11;;;;;;;15.90;5.70;;;;;;;4.90;75.62;97604.56;5056113;28;20593;-75
2022/02/27 09:02:37;;;;;;;10.57;4.50;;;;;;;4.62;75.91;97616.59;5088420;28;20032;-74
2022/02/27 09:05:05;;;;;;;11.03;5.20;;;;;;;5.79;72.53;97609.59;5074613;28;20055;-74
2022/02/27 09:07:31;;;;;;;10.87;5.03;;;;;;;5.08;72.46;97613.06;5089967;28;20474;-74
2022/02/27 09:09:57;;;;;;;14.13;6.60;;;;;;;5.40;73.85;97606.75;5080893;28;20032;-74
2022/02/27 09:12:23;;;;;;;12.10;5.23;;;;;;;3.89;75.56;97616.38;5089466;28;20040;-73
2022/02/27 09:14:49;;;;;;;10.17;4.97;;;;;;;4.74;77.49;97599.41;5077520;28;20081;-74
2022/02/27 09:17:14;;;;;;;8.63;4.70;;;;;;;5.40;72.75;97600.72;5067188;28;20115;-74
2022/02/27 09:19:40;;;;;;;14.10;4.80;;;;;;;5.09;73.51;97604.31;5079403;28;20393;-74
2022/02/27 09:22:06;;;;;;;10.17;4.57;;;;;;;5.05;71.41;97602.81;5080740;28;20032;-74
2022/02/27 09:24:32;;;;;;;11.57;5.67;;;;;;;6.18;68.04;97590.63;5071952;28;20035;-75
2022/02/27 09:26:58;;;;;;;10.43;5.03;;;;;;;6.77;65.10;97601.56;5082319;28;20040;-75
2022/02/27 09:29:24;;;;;;;8.87;3.83;;;;;;;5.54;64.76;97600.69;5081161;28;20039;-74
2022/02/27 09:31:50;;;;;;;9.23;3.77;;;;;;;5.71;64.32;97602.25;5089483;28;20028;-73
2022/02/27 09:34:19;;;;;;;8.60;3.90;;;;;;;5.31;63.14;97594.25;5082010;28;20589;-75
2022/02/27 09:36:47;;;;;;;8.20;4.30;;;;;;;4.93;64.23;97602.63;5088642;28;20038;-75
2022/02/27 09:39:13;;;;;;;10.17;4.50;;;;;;;5.25;61.43;97596.41;5074871;28;20024;-75
2022/02/27 09:41:39;;;;;;;9.37;4.13;;;;;;;4.94;64.07;97609.50;5085944;28;20481;-74
2022/02/27 09:44:07;;;;;;;15.03;4.43;;;;;;;5.36;60.59;97597.41;5075642;28;20032;-75
2022/02/27 09:46:33;;;;;;;9.50;4.23;;;;;;;3.86;66.34;97613.94;5081046;28;20032;-75
2022/02/27 09:48:59;;;;;;;9.57;3.90;;;;;;;4.91;64.68;97607.06;5088839;28;20035;-74
2022/02/27 09:51:26;;;;;;;8.47;4.37;;;;;;;3.85;68.01;97606.19;5077113;28;21012;-74
2022/02/27 09:53:52;;;;;;;6.93;3.83;;;;;;;3.85;70.40;97611.41;5084018;28;20040;-74
2022/02/27 09:56:18;;;;;;;10.23;4.23;;;;;;;4.09;71.38;97614.41;5090390;28;20051;-74
2022/02/27 09:58:44;;;;;;;11.10;4.43;;;;;;;4.42;67.00;97604.69;5089666;28;20043;-75
2022/02/27 10:01:12;;;;;;;8.10;4.37;;;;;;;4.95;67.77;97607.72;5072698;28;20028;-75
2022/02/27 10:03:40;;;;;;;9.53;4.60;;;;;;;6.16;65.64;97609.91;5089325;28;20093;-74
2022/02/27 10:06:08;;;;;;;10.50;5.63;;;;;;;4.83;69.46;97605.84;5090465;28;20032;-74
2022/02/27 10:08:46;;;;;;;10.60;4.30;;;;;;;4.23;71.84;97607.53;5068139;28;20037;-75
2022/02/27 10:11:17;;;;;;;12.27;4.60;;;;;;;5.38;67.98;97600.78;5080949;28;20048;-75
2022/02/27 10:13:45;;;;;;;9.53;4.10;;;;;;;5.10;67.12;97606.00;5061254;28;20035;-75
2022/02/27 10:16:13;;;;;;;13.53;5.90;;;;;;;3.73;72.23;97618.13;5080500;28;20045;-74
2022/02/27 10:18:53;;;;;;;8.97;3.47;;;;;;;3.47;72.76;97609.94;5077137;28;20511;-74
2022/02/27 10:21:19;;;;;;;8.77;4.10;;;;;;;3.39;72.60;97599.13;5088853;28;20485;-74
2022/02/27 10:23:54;;;;;;;9.03;4.23;;;;;;;3.19;74.19;97599.34;5088619;28;20527;-75
2022/02/27 10:26:21;;;;;;;7.03;3.87;;;;;;;2.89;75.28;97612.16;5064066;28;20047;-74
2022/02/27 10:29:10;;;;;;;10.70;4.27;;;;;;;3.00;76.83;97602.03;5085139;28;20043;-75
2022/02/27 10:31:38;;;;;;;11.10;4.67;;;;;;;3.24;75.87;97605.13;5083570;28;20048;-74
2022/02/27 10:34:14;;;;;;;11.50;4.60;;;;;;;2.92;76.28;97605.03;5084618;28;20169;-74
2022/02/27 10:36:58;;;;;;;10.83;4.77;;;;;;;3.14;75.35;97599.56;5087816;28;20043;-74
2022/02/27 10:39:46;;;;;;;6.13;2.77;;;;;;;3.34;67.63;97601.13;5088194;28;20556;-75
2022/02/27 10:42:16;;;;;;;7.70;3.37;;;;;;;3.06;67.79;97594.75;5080309;28;20800;-75
2022/02/27 10:45:03;;;;;;;8.07;3.67;;;;;;;2.96;66.42;97593.56;5055578;28;20528;-75
2022/02/27 10:47:35;;;;;;;9.37;4.23;;;;;;;3.03;71.73;97600.13;5062712;28;20474;-74
2022/02/27 10:50:08;;;;;;;8.43;4.17;;;;;;;3.03;72.67;97601.88;5067248;28;20034;-74
2022/02/27 10:52:33;;;;;;;7.43;3.40;;;;;;;3.10;64.68;97592.00;5086841;28;20462;-74
2022/02/27 10:55:02;;;;;;;11.40;3.87;;;;;;;3.09;65.68;97600.75;5079986;28;20031;-74
2022/02/27 10:57:36;;;;;;;7.67;3.43;;;;;;;3.22;63.71;97594.81;5063536;28;20109;-74
2022/02/27 11:00:23;;;;;;;8.00;3.35;;;;;;;3.18;64.51;97580.28;5063516;28;20454;-74
2022/02/27 11:02:57;;;;;;;7.67;3.43;;;;;;;3.03;64.99;97581.09;5077058;28;20032;-74
2022/02/27 11:05:28;;;;;;;8.03;3.33;;;;;;;3.07;65.77;97578.25;5077090;28;20454;-74
2022/02/27 11:07:57;;;;;;;8.63;3.43;;;;;;;3.57;66.11;97575.66;5062019;28;20510;-75
2022/02/27 11:10:27;;;;;;;7.37;3.37;;;;;;;3.32;64.68;97576.97;5064154;28;20421;-75
2022/02/27 11:12:54;;;;;;;9.30;4.03;;;;;;;3.14;66.63;97585.72;5081343;28;20435;-75
2022/02/27 11:15:22;;;;;;;7.80;3.30;;;;;;;2.98;66.64;97573.50;5065062;28;20071;-75
2022/02/27 11:17:48;;;;;;;6.50;3.27;;;;;;;3.20;67.44;97567.22;5062777;28;20470;-75
2022/02/27 11:20:16;;;;;;;8.20;3.90;;;;;;;3.48;68.15;97567.41;5079818;28;20450;-75
2022/02/27 11:22:42;;;;;;;9.97;4.50;;;;;;;3.59;66.42;97568.59;5089043;28;20828;-75